sensor_id;sensor_type;location;lat;lon;timestamp;pressure;altitude;pressure_sealevel;temperature;humidity
6851;BME280;3464;42.728;23.296;2023-07-13T00:00:10;95487.28;;;33.42;41.47
6851;BME280;3464;42.728;23.296;2023-07-13T00:02:37;95482.17;;;33.74;40.98
6851;BME280;3464;42.728;23.296;2023-07-13T00:05:04;95484.01;;;33.78;40.73
6851;BME280;3464;42.728;23.296;2023-07-13T00:07:30;95482.64;;;33.74;40.96
6851;BME280;3464;42.728;23.296;2023-07-13T00:09:57;95484.47;;;33.28;41.82
6851;BME280;3464;42.728;23.296;2023-07-13T00:12:27;95488.50;;;33.98;40.64
6851;BME280;3464;42.728;23.296;2023-07-13T00:14:52;95482.27;;;33.34;42.06
6851;BME280;3464;42.728;23.296;2023-07-13T00:17:18;95479.95;;;33.19;42.28
6851;BME280;3464;42.728;23.296;2023-07-13T00:19:45;95474.01;;;33.12;42.52
6851;BME280;3464;42.728;23.296;2023-07-13T00:22:11;95477.85;;;33.07;42.48
6851;BME280;3464;42.728;23.296;2023-07-13T00:24:38;95475.09;;;33.09;42.69
6851;BME280;3464;42.728;23.296;2023-07-13T00:27:04;95476.22;;;33.33;42.29
6851;BME280;3464;42.728;23.296;2023-07-13T00:29:31;95468.67;;;33.13;42.48
6851;BME280;3464;42.728;23.296;2023-07-13T00:31:57;95465.83;;;33.22;42.21
6851;BME280;3464;42.728;23.296;2023-07-13T00:34:24;95463.49;;;33.68;41.17
6851;BME280;3464;42.728;23.296;2023-07-13T00:36:51;95459.67;;;34.26;40.12
6851;BME280;3464;42.728;23.296;2023-07-13T00:39:17;95474.22;;;33.48;41.20
6851;BME280;3464;42.728;23.296;2023-07-13T00:41:44;95478.36;;;33.34;41.63
6851;BME280;3464;42.728;23.296;2023-07-13T00:44:13;95471.63;;;33.37;41.63
6851;BME280;3464;42.728;23.296;2023-07-13T00:46:37;95475.21;;;33.79;40.68
6851;BME280;3464;42.728;23.296;2023-07-13T00:49:04;95473.02;;;33.80;40.59
6851;BME280;3464;42.728;23.296;2023-07-13T00:51:32;95467.44;;;33.18;41.39
6851;BME280;3464;42.728;23.296;2023-07-13T00:53:57;95455.02;;;32.88;42.16
6851;BME280;3464;42.728;23.296;2023-07-13T00:56:23;95460.94;;;33.51;40.72
6851;BME280;3464;42.728;23.296;2023-07-13T00:58:50;95467.48;;;31.72;43.99
6851;BME280;3464;42.728;23.296;2023-07-13T01:01:16;95457.22;;;32.41;43.05
6851;BME280;3464;42.728;23.296;2023-07-13T01:03:43;95453.49;;;31.85;43.88
6851;BME280;3464;42.728;23.296;2023-07-13T01:06:09;95452.90;;;31.82;43.76
6851;BME280;3464;42.728;23.296;2023-07-13T01:08:36;95458.19;;;33.69;40.55
6851;BME280;3464;42.728;23.296;2023-07-13T01:11:03;95463.50;;;32.73;42.04
6851;BME280;3464;42.728;23.296;2023-07-13T01:13:29;95459.75;;;32.71;42.21
6851;BME280;3464;42.728;23.296;2023-07-13T01:15:56;95465.19;;;33.96;40.46
6851;BME280;3464;42.728;23.296;2023-07-13T01:18:25;95459.70;;;33.00;41.54
6851;BME280;3464;42.728;23.296;2023-07-13T01:20:57;95459.53;;;33.41;40.76
6851;BME280;3464;42.728;23.296;2023-07-13T01:23:23;95452.61;;;33.02;41.60
6851;BME280;3464;42.728;23.296;2023-07-13T01:25:49;95454.54;;;32.48;42.99
6851;BME280;3464;42.728;23.296;2023-07-13T01:28:16;95446.95;;;33.95;40.66
6851;BME280;3464;42.728;23.296;2023-07-13T01:30:43;95450.17;;;33.39;41.25
6851;BME280;3464;42.728;23.296;2023-07-13T01:33:09;95445.69;;;33.18;41.42
6851;BME280;3464;42.728;23.296;2023-07-13T01:35:36;95451.89;;;33.22;41.34
6851;BME280;3464;42.728;23.296;2023-07-13T01:38:03;95456.41;;;32.46;42.49
6851;BME280;3464;42.728;23.296;2023-07-13T01:40:29;95452.84;;;32.93;41.95
6851;BME280;3464;42.728;23.296;2023-07-13T01:42:56;95447.75;;;33.19;41.46
6851;BME280;3464;42.728;23.296;2023-07-13T01:45:22;95448.14;;;32.52;42.83
6851;BME280;3464;42.728;23.296;2023-07-13T01:47:49;95445.48;;;32.87;42.23
6851;BME280;3464;42.728;23.296;2023-07-13T01:50:16;95448.92;;;33.10;41.78
6851;BME280;3464;42.728;23.296;2023-07-13T01:52:42;95447.93;;;33.61;40.87
6851;BME280;3464;42.728;23.296;2023-07-13T01:55:09;95450.34;;;32.86;42.07
6851;BME280;3464;42.728;23.296;2023-07-13T01:57:36;95448.34;;;33.34;41.22
6851;BME280;3464;42.728;23.296;2023-07-13T02:00:04;95452.39;;;33.98;40.42
6851;BME280;3464;42.728;23.296;2023-07-13T02:02:30;95449.63;;;33.40;41.08
6851;BME280;3464;42.728;23.296;2023-07-13T02:04:56;95454.33;;;33.13;41.56
6851;BME280;3464;42.728;23.296;2023-07-13T02:07:24;95461.63;;;33.31;41.45
6851;BME280;3464;42.728;23.296;2023-07-13T02:09:51;95461.27;;;33.36;41.35
6851;BME280;3464;42.728;23.296;2023-07-13T02:12:18;95455.14;;;33.47;41.12
6851;BME280;3464;42.728;23.296;2023-07-13T02:14:44;95454.45;;;33.12;41.84
6851;BME280;3464;42.728;23.296;2023-07-13T02:17:11;95448.06;;;33.54;41.37
6851;BME280;3464;42.728;23.296;2023-07-13T02:19:37;95450.63;;;33.82;40.80
6851;BME280;3464;42.728;23.296;2023-07-13T02:22:05;95456.97;;;33.68;41.13
6851;BME280;3464;42.728;23.296;2023-07-13T02:24:31;95455.67;;;33.52;41.48
6851;BME280;3464;42.728;23.296;2023-07-13T02:26:59;95461.74;;;33.35;41.67
6851;BME280;3464;42.728;23.296;2023-07-13T02:29:27;95464.34;;;33.79;41.05
6851;BME280;3464;42.728;23.296;2023-07-13T02:31:55;95465.04;;;33.65;41.09
6851;BME280;3464;42.728;23.296;2023-07-13T02:34:21;95468.72;;;33.52;41.44
6851;BME280;3464;42.728;23.296;2023-07-13T02:36:48;95469.62;;;33.23;41.76
6851;BME280;3464;42.728;23.296;2023-07-13T02:39:14;95467.84;;;33.07;42.26
6851;BME280;3464;42.728;23.296;2023-07-13T02:41:41;95466.97;;;32.50;42.96
6851;BME280;3464;42.728;23.296;2023-07-13T02:44:07;95470.17;;;32.65;42.75
6851;BME280;3464;42.728;23.296;2023-07-13T02:46:34;95473.74;;;32.29;43.15
6851;BME280;3464;42.728;23.296;2023-07-13T02:49:00;95474.52;;;32.30;43.18
6851;BME280;3464;42.728;23.296;2023-07-13T02:51:27;95472.63;;;33.07;41.77
6851;BME280;3464;42.728;23.296;2023-07-13T02:53:53;95470.72;;;32.87;42.04
6851;BME280;3464;42.728;23.296;2023-07-13T02:56:22;95465.48;;;33.15;41.58
6851;BME280;3464;42.728;23.296;2023-07-13T02:58:48;95474.75;;;33.36;41.11
6851;BME280;3464;42.728;23.296;2023-07-13T03:01:15;95469.19;;;33.35;40.98
6851;BME280;3464;42.728;23.296;2023-07-13T03:03:45;95469.20;;;33.17;41.11
6851;BME280;3464;42.728;23.296;2023-07-13T03:06:12;95473.62;;;33.17;41.23
6851;BME280;3464;42.728;23.296;2023-07-13T03:08:38;95466.39;;;33.48;40.58
6851;BME280;3464;42.728;23.296;2023-07-13T03:11:08;95475.36;;;33.56;40.43
6851;BME280;3464;42.728;23.296;2023-07-13T03:13:34;95481.71;;;33.47;40.80
6851;BME280;3464;42.728;23.296;2023-07-13T03:16:00;95480.05;;;33.68;40.57
6851;BME280;3464;42.728;23.296;2023-07-13T03:18:28;95477.41;;;33.79;40.37
6851;BME280;3464;42.728;23.296;2023-07-13T03:20:55;95474.76;;;33.63;40.71
6851;BME280;3464;42.728;23.296;2023-07-13T03:23:21;95477.70;;;33.81;40.23
6851;BME280;3464;42.728;23.296;2023-07-13T03:25:48;95480.20;;;33.99;40.28
6851;BME280;3464;42.728;23.296;2023-07-13T03:28:15;95480.75;;;33.76;40.81
6851;BME280;3464;42.728;23.296;2023-07-13T03:30:43;95486.52;;;33.47;41.36
6851;BME280;3464;42.728;23.296;2023-07-13T03:33:10;95483.86;;;34.07;40.41
6851;BME280;3464;42.728;23.296;2023-07-13T03:35:39;95480.53;;;34.54;39.32
6851;BME280;3464;42.728;23.296;2023-07-13T03:38:04;95487.42;;;34.65;39.23
6851;BME280;3464;42.728;23.296;2023-07-13T03:40:31;95487.73;;;35.38;38.10
6851;BME280;3464;42.728;23.296;2023-07-13T03:42:57;95483.97;;;36.11;37.26
6851;BME280;3464;42.728;23.296;2023-07-13T03:45:24;95484.40;;;36.25;37.07
6851;BME280;3464;42.728;23.296;2023-07-13T03:47:50;95485.22;;;36.93;35.80
6851;BME280;3464;42.728;23.296;2023-07-13T03:50:17;95478.73;;;37.76;34.50
6851;BME280;3464;42.728;23.296;2023-07-13T03:52:43;95480.34;;;37.86;33.87
6851;BME280;3464;42.728;23.296;2023-07-13T03:55:10;95473.50;;;38.38;33.44
6851;BME280;3464;42.728;23.296;2023-07-13T03:57:36;95483.39;;;38.71;32.30
6851;BME280;3464;42.728;23.296;2023-07-13T04:00:03;95476.16;;;40.26;31.45
6851;BME280;3464;42.728;23.296;2023-07-13T04:02:31;95485.09;;;40.74;29.99
6851;BME280;3464;42.728;23.296;2023-07-13T04:04:57;95475.82;;;41.34;29.62
6851;BME280;3464;42.728;23.296;2023-07-13T04:07:24;95477.48;;;41.23;29.48
6851;BME280;3464;42.728;23.296;2023-07-13T04:09:51;95469.50;;;42.74;28.23
6851;BME280;3464;42.728;23.296;2023-07-13T04:12:17;95473.20;;;42.88;28.18
6851;BME280;3464;42.728;23.296;2023-07-13T04:14:44;95475.02;;;43.62;26.99
6851;BME280;3464;42.728;23.296;2023-07-13T04:17:10;95482.17;;;43.31;27.00
6851;BME280;3464;42.728;23.296;2023-07-13T04:19:36;95493.36;;;43.22;26.99
6851;BME280;3464;42.728;23.296;2023-07-13T04:22:03;95498.11;;;43.20;27.08
6851;BME280;3464;42.728;23.296;2023-07-13T04:24:30;95495.41;;;42.60;27.47
6851;BME280;3464;42.728;23.296;2023-07-13T04:26:56;95499.86;;;44.51;26.05
6851;BME280;3464;42.728;23.296;2023-07-13T04:29:24;95499.25;;;44.02;26.08
6851;BME280;3464;42.728;23.296;2023-07-13T04:31:51;95500.83;;;45.31;25.13
6851;BME280;3464;42.728;23.296;2023-07-13T04:34:17;95501.38;;;45.75;24.29
6851;BME280;3464;42.728;23.296;2023-07-13T04:36:44;95500.84;;;45.89;24.28
6851;BME280;3464;42.728;23.296;2023-07-13T04:39:11;95499.72;;;45.84;24.23
6851;BME280;3464;42.728;23.296;2023-07-13T04:41:37;95504.23;;;46.91;23.36
6851;BME280;3464;42.728;23.296;2023-07-13T04:44:04;95500.66;;;47.63;22.88
6851;BME280;3464;42.728;23.296;2023-07-13T04:46:30;95504.59;;;48.87;21.61
6851;BME280;3464;42.728;23.296;2023-07-13T04:48:57;95507.67;;;49.19;21.74
6851;BME280;3464;42.728;23.296;2023-07-13T04:51:23;95511.92;;;49.29;21.34
6851;BME280;3464;42.728;23.296;2023-07-13T04:53:50;95524.97;;;50.44;20.49
6851;BME280;3464;42.728;23.296;2023-07-13T04:56:16;95528.63;;;48.90;21.72
6851;BME280;3464;42.728;23.296;2023-07-13T04:58:43;95529.48;;;47.21;22.58
6851;BME280;3464;42.728;23.296;2023-07-13T05:01:10;95523.26;;;48.63;21.82
6851;BME280;3464;42.728;23.296;2023-07-13T05:03:36;95529.55;;;50.22;20.77
6851;BME280;3464;42.728;23.296;2023-07-13T05:06:04;95522.54;;;51.28;20.07
6851;BME280;3464;42.728;23.296;2023-07-13T05:08:29;95523.25;;;50.95;20.03
6851;BME280;3464;42.728;23.296;2023-07-13T05:10:56;95523.35;;;51.60;19.83
6851;BME280;3464;42.728;23.296;2023-07-13T05:13:22;95522.88;;;52.55;19.18
6851;BME280;3464;42.728;23.296;2023-07-13T05:15:56;95518.77;;;53.37;18.43
6851;BME280;3464;42.728;23.296;2023-07-13T05:18:21;95522.72;;;52.87;18.70
6851;BME280;3464;42.728;23.296;2023-07-13T05:20:54;95514.66;;;53.40;18.46
6851;BME280;3464;42.728;23.296;2023-07-13T05:23:14;95518.33;;;54.57;17.54
6851;BME280;3464;42.728;23.296;2023-07-13T05:25:41;95518.01;;;54.53;17.75
6851;BME280;3464;42.728;23.296;2023-07-13T05:28:08;95521.66;;;55.67;16.91
6851;BME280;3464;42.728;23.296;2023-07-13T05:30:34;95531.77;;;55.76;16.80
6851;BME280;3464;42.728;23.296;2023-07-13T05:33:02;95525.55;;;54.19;17.59
6851;BME280;3464;42.728;23.296;2023-07-13T05:35:28;95526.87;;;54.75;17.51
6851;BME280;3464;42.728;23.296;2023-07-13T05:37:55;95526.52;;;57.14;16.29
6851;BME280;3464;42.728;23.296;2023-07-13T05:40:21;95525.27;;;56.26;16.43
6851;BME280;3464;42.728;23.296;2023-07-13T05:42:48;95525.55;;;57.12;16.02
6851;BME280;3464;42.728;23.296;2023-07-13T05:45:15;95531.52;;;55.65;16.65
6851;BME280;3464;42.728;23.296;2023-07-13T05:47:41;95526.84;;;56.15;16.56
6851;BME280;3464;42.728;23.296;2023-07-13T05:50:08;95533.69;;;57.72;15.71
6851;BME280;3464;42.728;23.296;2023-07-13T05:52:34;95531.48;;;58.48;15.38
6851;BME280;3464;42.728;23.296;2023-07-13T05:55:01;95527.91;;;60.26;14.31
6851;BME280;3464;42.728;23.296;2023-07-13T05:57:27;95513.34;;;59.65;14.18
6851;BME280;3464;42.728;23.296;2023-07-13T05:59:54;95511.30;;;59.78;14.01
6851;BME280;3464;42.728;23.296;2023-07-13T06:02:21;95510.47;;;60.03;14.40
6851;BME280;3464;42.728;23.296;2023-07-13T06:04:47;95512.85;;;59.72;14.13
6851;BME280;3464;42.728;23.296;2023-07-13T06:07:14;95520.83;;;57.65;15.04
6851;BME280;3464;42.728;23.296;2023-07-13T06:09:40;95531.01;;;57.67;14.88
6851;BME280;3464;42.728;23.296;2023-07-13T06:12:07;95529.73;;;58.09;14.87
6851;BME280;3464;42.728;23.296;2023-07-13T06:14:34;95529.38;;;59.32;14.22
6851;BME280;3464;42.728;23.296;2023-07-13T06:17:00;95528.07;;;59.59;14.18
6851;BME280;3464;42.728;23.296;2023-07-13T06:19:28;95523.46;;;60.47;13.79
6851;BME280;3464;42.728;23.296;2023-07-13T06:21:54;95531.64;;;59.83;13.85
6851;BME280;3464;42.728;23.296;2023-07-13T06:24:21;95538.36;;;59.09;14.28
6851;BME280;3464;42.728;23.296;2023-07-13T06:26:47;95536.20;;;59.44;13.67
6851;BME280;3464;42.728;23.296;2023-07-13T06:29:14;95530.47;;;59.12;14.03
6851;BME280;3464;42.728;23.296;2023-07-13T06:31:40;95522.10;;;61.49;13.11
6851;BME280;3464;42.728;23.296;2023-07-13T06:34:08;95521.02;;;60.78;13.36
6851;BME280;3464;42.728;23.296;2023-07-13T06:36:35;95519.16;;;60.64;13.29
6851;BME280;3464;42.728;23.296;2023-07-13T06:39:02;95522.00;;;61.99;12.91
6851;BME280;3464;42.728;23.296;2023-07-13T06:41:28;95519.94;;;61.23;13.01
6851;BME280;3464;42.728;23.296;2023-07-13T06:43:54;95511.06;;;60.24;13.56
6851;BME280;3464;42.728;23.296;2023-07-13T06:46:21;95515.38;;;61.67;13.12
6851;BME280;3464;42.728;23.296;2023-07-13T06:48:47;95518.30;;;62.36;13.23
6851;BME280;3464;42.728;23.296;2023-07-13T06:51:14;95513.68;;;61.48;13.15
6851;BME280;3464;42.728;23.296;2023-07-13T06:53:40;95521.45;;;62.47;12.80
6851;BME280;3464;42.728;23.296;2023-07-13T06:56:07;95520.66;;;61.47;12.86
6851;BME280;3464;42.728;23.296;2023-07-13T06:58:33;95523.17;;;60.88;13.22
6851;BME280;3464;42.728;23.296;2023-07-13T07:01:00;95522.56;;;60.18;13.80
6851;BME280;3464;42.728;23.296;2023-07-13T07:03:27;95521.23;;;60.60;13.15
6851;BME280;3464;42.728;23.296;2023-07-13T07:05:54;95516.63;;;61.26;12.93
6851;BME280;3464;42.728;23.296;2023-07-13T07:08:20;95522.41;;;61.70;12.78
6851;BME280;3464;42.728;23.296;2023-07-13T07:10:47;95519.31;;;63.14;12.04
6851;BME280;3464;42.728;23.296;2023-07-13T07:13:14;95513.92;;;63.71;12.08
6851;BME280;3464;42.728;23.296;2023-07-13T07:15:40;95504.86;;;64.64;11.57
6851;BME280;3464;42.728;23.296;2023-07-13T07:18:07;95505.02;;;64.35;12.03
6851;BME280;3464;42.728;23.296;2023-07-13T07:20:33;95507.34;;;64.30;11.86
6851;BME280;3464;42.728;23.296;2023-07-13T07:23:00;95504.48;;;61.89;12.64
6851;BME280;3464;42.728;23.296;2023-07-13T07:25:27;95504.22;;;62.43;12.59
6851;BME280;3464;42.728;23.296;2023-07-13T07:27:54;95502.33;;;62.09;12.47
6851;BME280;3464;42.728;23.296;2023-07-13T07:30:20;95490.73;;;61.42;13.25
6851;BME280;3464;42.728;23.296;2023-07-13T07:32:47;95491.63;;;61.47;13.06
6851;BME280;3464;42.728;23.296;2023-07-13T07:35:15;95487.14;;;64.01;11.90
6851;BME280;3464;42.728;23.296;2023-07-13T07:37:41;95490.88;;;63.37;12.19
6851;BME280;3464;42.728;23.296;2023-07-13T07:40:09;95483.80;;;61.15;13.13
6851;BME280;3464;42.728;23.296;2023-07-13T07:42:35;95486.02;;;62.51;12.57
6851;BME280;3464;42.728;23.296;2023-07-13T07:45:03;95492.50;;;62.98;12.73
6851;BME280;3464;42.728;23.296;2023-07-13T07:47:29;95484.25;;;63.44;12.52
6851;BME280;3464;42.728;23.296;2023-07-13T07:49:56;95481.28;;;63.43;12.21
6851;BME280;3464;42.728;23.296;2023-07-13T07:52:23;95470.38;;;63.37;12.52
6851;BME280;3464;42.728;23.296;2023-07-13T07:54:50;95465.69;;;63.90;12.57
6851;BME280;3464;42.728;23.296;2023-07-13T07:57:17;95466.22;;;63.32;12.50
6851;BME280;3464;42.728;23.296;2023-07-13T07:59:43;95467.91;;;63.38;12.83
6851;BME280;3464;42.728;23.296;2023-07-13T08:02:10;95468.33;;;62.98;12.66
6851;BME280;3464;42.728;23.296;2023-07-13T08:04:36;95460.32;;;63.06;12.37
6851;BME280;3464;42.728;23.296;2023-07-13T08:07:03;95456.83;;;62.25;12.76
6851;BME280;3464;42.728;23.296;2023-07-13T08:09:29;95453.02;;;61.49;13.00
6851;BME280;3464;42.728;23.296;2023-07-13T08:11:56;95455.42;;;62.27;13.11
6851;BME280;3464;42.728;23.296;2023-07-13T08:14:22;95450.01;;;61.57;13.01
6851;BME280;3464;42.728;23.296;2023-07-13T08:16:50;95451.45;;;62.54;12.98
6851;BME280;3464;42.728;23.296;2023-07-13T08:19:17;95442.03;;;62.84;12.63
6851;BME280;3464;42.728;23.296;2023-07-13T08:21:43;95437.62;;;62.19;13.04
6851;BME280;3464;42.728;23.296;2023-07-13T08:24:11;95432.59;;;60.45;13.75
6851;BME280;3464;42.728;23.296;2023-07-13T08:26:38;95435.06;;;59.24;14.90
6851;BME280;3464;42.728;23.296;2023-07-13T08:29:05;95430.98;;;56.47;15.69
6851;BME280;3464;42.728;23.296;2023-07-13T08:31:31;95423.91;;;56.00;16.05
6851;BME280;3464;42.728;23.296;2023-07-13T08:33:58;95423.39;;;55.15;16.71
6851;BME280;3464;42.728;23.296;2023-07-13T08:36:25;95416.84;;;55.43;16.53
6851;BME280;3464;42.728;23.296;2023-07-13T08:38:52;95410.55;;;54.53;17.32
6851;BME280;3464;42.728;23.296;2023-07-13T08:41:18;95412.22;;;54.75;17.06
6851;BME280;3464;42.728;23.296;2023-07-13T08:43:45;95417.52;;;52.70;18.45
6851;BME280;3464;42.728;23.296;2023-07-13T08:46:13;95423.77;;;51.79;19.56
6851;BME280;3464;42.728;23.296;2023-07-13T08:48:41;95419.87;;;51.50;19.23
6851;BME280;3464;42.728;23.296;2023-07-13T08:51:15;95422.36;;;47.92;21.85
6851;BME280;3464;42.728;23.296;2023-07-13T08:53:41;95427.00;;;48.47;21.44
6851;BME280;3464;42.728;23.296;2023-07-13T08:56:17;95430.99;;;46.71;23.37
6851;BME280;3464;42.728;23.296;2023-07-13T08:58:33;95442.02;;;46.48;23.65
6851;BME280;3464;42.728;23.296;2023-07-13T09:01:08;95447.28;;;44.25;25.78
6851;BME280;3464;42.728;23.296;2023-07-13T09:03:36;95446.61;;;43.84;26.27
6851;BME280;3464;42.728;23.296;2023-07-13T09:05:58;95458.81;;;43.56;26.63
6851;BME280;3464;42.728;23.296;2023-07-13T09:08:38;95462.59;;;41.50;29.11
6851;BME280;3464;42.728;23.296;2023-07-13T09:11:13;95463.89;;;42.46;27.83
6851;BME280;3464;42.728;23.296;2023-07-13T09:16:22;95452.91;;;44.12;25.41
6851;BME280;3464;42.728;23.296;2023-07-13T09:18:49;95451.11;;;44.58;24.88
6851;BME280;3464;42.728;23.296;2023-07-13T09:21:18;95453.45;;;42.60;27.23
6851;BME280;3464;42.728;23.296;2023-07-13T09:23:43;95452.57;;;43.27;26.77
6851;BME280;3464;42.728;23.296;2023-07-13T09:26:14;95453.41;;;42.98;27.63
6851;BME280;3464;42.728;23.296;2023-07-13T09:28:42;95452.81;;;44.76;25.37
6851;BME280;3464;42.728;23.296;2023-07-13T09:31:13;95446.25;;;44.72;25.37
6851;BME280;3464;42.728;23.296;2023-07-13T09:33:37;95444.83;;;44.09;25.82
6851;BME280;3464;42.728;23.296;2023-07-13T09:36:37;95446.53;;;44.31;25.77
6851;BME280;3464;42.728;23.296;2023-07-13T09:38:48;95445.28;;;43.11;27.54
6851;BME280;3464;42.728;23.296;2023-07-13T09:41:25;95436.17;;;42.79;27.98
6851;BME280;3464;42.728;23.296;2023-07-13T09:44:01;95425.05;;;43.03;27.61
6851;BME280;3464;42.728;23.296;2023-07-13T09:46:26;95419.50;;;42.52;28.40
6851;BME280;3464;42.728;23.296;2023-07-13T09:48:53;95414.34;;;44.12;26.57
6851;BME280;3464;42.728;23.296;2023-07-13T09:51:20;95403.68;;;44.45;26.74
6851;BME280;3464;42.728;23.296;2023-07-13T09:53:47;95407.52;;;44.53;26.14
6851;BME280;3464;42.728;23.296;2023-07-13T09:56:22;95405.08;;;45.58;24.71
6851;BME280;3464;42.728;23.296;2023-07-13T09:58:48;95398.36;;;46.09;25.24
6851;BME280;3464;42.728;23.296;2023-07-13T10:01:15;95407.09;;;46.17;23.99
6851;BME280;3464;42.728;23.296;2023-07-13T10:03:51;95396.48;;;46.00;24.39
6851;BME280;3464;42.728;23.296;2023-07-13T10:06:13;95393.48;;;46.22;22.44
6851;BME280;3464;42.728;23.296;2023-07-13T10:08:39;95390.89;;;46.52;21.50
6851;BME280;3464;42.728;23.296;2023-07-13T10:11:18;95386.71;;;45.87;22.05
6851;BME280;3464;42.728;23.296;2023-07-13T10:13:37;95379.24;;;46.18;21.80
6851;BME280;3464;42.728;23.296;2023-07-13T10:16:05;95386.51;;;47.07;21.89
6851;BME280;3464;42.728;23.296;2023-07-13T10:18:37;95398.78;;;46.76;21.43
6851;BME280;3464;42.728;23.296;2023-07-13T10:23:34;95396.55;;;46.53;22.33
6851;BME280;3464;42.728;23.296;2023-07-13T10:26:00;95383.57;;;46.04;23.26
6851;BME280;3464;42.728;23.296;2023-07-13T10:31:12;95377.80;;;45.70;25.01
6851;BME280;3464;42.728;23.296;2023-07-13T10:33:38;95375.28;;;45.73;22.86
6851;BME280;3464;42.728;23.296;2023-07-13T10:36:12;95374.44;;;44.52;25.17
6851;BME280;3464;42.728;23.296;2023-07-13T10:38:37;95374.55;;;44.76;24.29
6851;BME280;3464;42.728;23.296;2023-07-13T10:41:07;95376.39;;;45.16;24.63
6851;BME280;3464;42.728;23.296;2023-07-13T10:43:39;95363.44;;;44.93;23.80
6851;BME280;3464;42.728;23.296;2023-07-13T10:46:06;95357.25;;;45.31;22.78
6851;BME280;3464;42.728;23.296;2023-07-13T10:48:32;95355.52;;;45.34;24.18
6851;BME280;3464;42.728;23.296;2023-07-13T10:50:59;95350.45;;;45.05;22.97
6851;BME280;3464;42.728;23.296;2023-07-13T10:53:29;95351.20;;;45.09;24.10
6851;BME280;3464;42.728;23.296;2023-07-13T10:56:28;95354.89;;;45.08;22.54
6851;BME280;3464;42.728;23.296;2023-07-13T10:58:40;95345.27;;;45.24;22.52
6851;BME280;3464;42.728;23.296;2023-07-13T11:01:08;95339.24;;;45.09;23.88
6851;BME280;3464;42.728;23.296;2023-07-13T11:03:36;95339.57;;;44.72;22.61
6851;BME280;3464;42.728;23.296;2023-07-13T11:06:13;95330.75;;;45.06;21.76
6851;BME280;3464;42.728;23.296;2023-07-13T11:11:31;95319.53;;;45.11;21.13
6851;BME280;3464;42.728;23.296;2023-07-13T11:13:58;95315.02;;;45.08;22.43
6851;BME280;3464;42.728;23.296;2023-07-13T11:19:25;95330.83;;;44.78;22.02
6851;BME280;3464;42.728;23.296;2023-07-13T11:22:02;95322.53;;;44.91;21.97
6851;BME280;3464;42.728;23.296;2023-07-13T11:24:28;95323.24;;;45.03;21.96
6851;BME280;3464;42.728;23.296;2023-07-13T11:26:55;95320.50;;;44.79;21.96
6851;BME280;3464;42.728;23.296;2023-07-13T11:29:37;95315.97;;;44.73;22.29
6851;BME280;3464;42.728;23.296;2023-07-13T11:32:20;95320.84;;;44.83;22.01
6851;BME280;3464;42.728;23.296;2023-07-13T11:34:31;95316.41;;;45.21;21.71
6851;BME280;3464;42.728;23.296;2023-07-13T11:36:57;95308.00;;;45.62;21.37
6851;BME280;3464;42.728;23.296;2023-07-13T11:39:31;95309.58;;;45.70;20.79
6851;BME280;3464;42.728;23.296;2023-07-13T11:41:59;95312.14;;;45.27;22.70
6851;BME280;3464;42.728;23.296;2023-07-13T11:44:26;95305.81;;;45.51;21.40
6851;BME280;3464;42.728;23.296;2023-07-13T11:46:53;95297.28;;;46.09;20.96
6851;BME280;3464;42.728;23.296;2023-07-13T11:49:20;95299.27;;;46.20;20.83
6851;BME280;3464;42.728;23.296;2023-07-13T11:51:46;95302.38;;;45.00;21.44
6851;BME280;3464;42.728;23.296;2023-07-13T11:54:29;95287.16;;;45.68;21.97
6851;BME280;3464;42.728;23.296;2023-07-13T11:56:55;95287.85;;;46.00;21.33
6851;BME280;3464;42.728;23.296;2023-07-13T11:59:21;95290.28;;;46.18;21.23
6851;BME280;3464;42.728;23.296;2023-07-13T12:01:51;95278.89;;;46.33;20.56
6851;BME280;3464;42.728;23.296;2023-07-13T12:04:22;95277.36;;;46.22;20.33
6851;BME280;3464;42.728;23.296;2023-07-13T12:06:47;95273.41;;;45.79;20.77
6851;BME280;3464;42.728;23.296;2023-07-13T12:09:14;95274.48;;;44.44;22.71
6851;BME280;3464;42.728;23.296;2023-07-13T12:11:42;95274.20;;;45.52;21.32
6851;BME280;3464;42.728;23.296;2023-07-13T12:14:14;95261.66;;;45.90;21.26
6851;BME280;3464;42.728;23.296;2023-07-13T12:16:41;95265.08;;;46.24;21.87
6851;BME280;3464;42.728;23.296;2023-07-13T12:19:14;95261.69;;;46.55;21.62
6851;BME280;3464;42.728;23.296;2023-07-13T12:21:37;95253.14;;;46.79;20.78
6851;BME280;3464;42.728;23.296;2023-07-13T12:24:02;95252.05;;;46.38;21.62
6851;BME280;3464;42.728;23.296;2023-07-13T12:26:29;95251.63;;;46.74;21.01
6851;BME280;3464;42.728;23.296;2023-07-13T12:28:59;95241.27;;;46.78;21.52
6851;BME280;3464;42.728;23.296;2023-07-13T12:31:41;95237.67;;;45.93;21.42
6851;BME280;3464;42.728;23.296;2023-07-13T12:34:12;95237.66;;;46.81;20.96
6851;BME280;3464;42.728;23.296;2023-07-13T12:36:41;95236.59;;;46.51;21.49
6851;BME280;3464;42.728;23.296;2023-07-13T12:39:15;95229.69;;;46.68;21.74
6851;BME280;3464;42.728;23.296;2023-07-13T12:41:43;95228.80;;;47.07;21.33
6851;BME280;3464;42.728;23.296;2023-07-13T12:44:11;95227.86;;;46.69;22.15
6851;BME280;3464;42.728;23.296;2023-07-13T12:46:38;95222.53;;;46.07;22.23
6851;BME280;3464;42.728;23.296;2023-07-13T12:49:05;95220.57;;;47.15;21.31
6851;BME280;3464;42.728;23.296;2023-07-13T12:51:32;95219.73;;;47.18;21.30
6851;BME280;3464;42.728;23.296;2023-07-13T12:54:16;95221.20;;;46.69;21.41
6851;BME280;3464;42.728;23.296;2023-07-13T12:56:32;95216.01;;;46.09;22.07
6851;BME280;3464;42.728;23.296;2023-07-13T12:59:01;95217.32;;;46.65;22.06
6851;BME280;3464;42.728;23.296;2023-07-13T13:01:27;95214.56;;;46.33;22.13
6851;BME280;3464;42.728;23.296;2023-07-13T13:03:53;95210.09;;;46.27;22.00
6851;BME280;3464;42.728;23.296;2023-07-13T13:06:26;95208.14;;;46.96;21.48
6851;BME280;3464;42.728;23.296;2023-07-13T13:08:53;95200.98;;;46.87;21.19
6851;BME280;3464;42.728;23.296;2023-07-13T13:11:19;95193.38;;;46.06;22.24
6851;BME280;3464;42.728;23.296;2023-07-13T13:13:46;95201.66;;;46.04;22.24
6851;BME280;3464;42.728;23.296;2023-07-13T13:18:54;95199.74;;;47.14;21.97
6851;BME280;3464;42.728;23.296;2023-07-13T13:21:20;95194.69;;;47.00;21.30
6851;BME280;3464;42.728;23.296;2023-07-13T13:23:47;95189.47;;;46.31;21.73
6851;BME280;3464;42.728;23.296;2023-07-13T13:26:14;95202.17;;;47.26;21.00